createdAt,value
2023-05-04T00:01:44.509Z,2.47
2023-05-04T00:06:49.002Z,3.15
2023-05-04T00:11:51.749Z,2.70
2023-05-04T00:16:54.443Z,2.80
2023-05-04T00:21:58.529Z,3.22
2023-05-04T00:27:02.287Z,2.63
2023-05-04T00:32:06.056Z,2.63
2023-05-04T00:37:10.168Z,3.33
2023-05-04T00:42:12.957Z,2.78
2023-05-04T00:47:16.803Z,2.60
2023-05-04T00:52:22.264Z,2.90
2023-05-04T00:57:25.080Z,2.97
2023-05-04T01:02:27.822Z,2.88
2023-05-04T01:07:40.964Z,3.03
2023-05-04T01:12:50.120Z,3.72
2023-05-04T01:17:52.932Z,4.55
2023-05-04T01:22:57.192Z,4.90
2023-05-04T01:28:08.710Z,3.30
2023-05-04T01:33:12.256Z,3.83
2023-05-04T01:38:16.550Z,3.13
2023-05-04T01:43:19.312Z,3.13
2023-05-04T01:48:22.199Z,3.10
2023-05-04T01:53:26.778Z,3.20
2023-05-04T01:58:29.628Z,3.25
2023-05-04T02:03:32.452Z,3.10
2023-05-04T02:08:36.881Z,3.22
2023-05-04T02:13:39.714Z,3.15
2023-05-04T02:18:42.613Z,3.15
2023-05-04T02:23:46.669Z,3.10
2023-05-04T02:28:49.400Z,3.33
2023-05-04T02:33:53.566Z,3.45
2023-05-04T02:39:00.297Z,3.50
2023-05-04T02:44:03.151Z,3.10
2023-05-04T02:49:08.098Z,2.90
2023-05-04T02:54:12.254Z,3.53
2023-05-04T02:59:15.052Z,3.30
2023-05-04T03:04:17.939Z,3.90
2023-05-04T03:09:22.074Z,3.70
2023-05-04T03:14:25.101Z,4.53
2023-05-04T03:19:28.598Z,3.25
2023-05-04T03:24:33.743Z,3.33
2023-05-04T03:29:37.024Z,3.25
2023-05-04T03:34:41.212Z,3.50
2023-05-04T03:39:46.320Z,3.42
2023-05-04T03:44:49.160Z,3.42
2023-05-04T03:49:52.681Z,3.33
2023-05-04T03:54:58.116Z,4.00
2023-05-04T04:00:01.285Z,3.38
2023-05-04T04:05:06.599Z,3.97
2023-05-04T04:10:12.695Z,3.75
2023-05-04T04:15:16.300Z,3.92
2023-05-04T04:20:19.141Z,3.53
2023-05-04T04:25:24.266Z,4.75
2023-05-04T04:30:27.218Z,4.75
2023-05-04T04:35:33.429Z,4.88
2023-05-04T04:40:38.228Z,4.65
2023-05-04T04:45:41.427Z,4.63
2023-05-04T04:50:44.953Z,4.68
2023-05-04T04:55:49.371Z,5.03
2023-05-04T05:00:52.810Z,4.30
2023-05-04T05:05:56.274Z,4.53
2023-05-04T05:11:00.464Z,4.28
2023-05-04T05:16:03.728Z,4.90
2023-05-04T05:21:07.465Z,4.50
2023-05-04T05:26:11.788Z,5.28
2023-05-04T05:31:14.589Z,4.45
2023-05-04T05:36:17.427Z,5.30
2023-05-04T05:41:22.650Z,4.30
2023-05-04T05:46:25.866Z,4.15
2023-05-04T05:51:28.605Z,4.05
2023-05-04T05:56:34.486Z,3.90
2023-05-04T06:01:37.221Z,4.53
2023-05-04T06:06:44.314Z,4.40
2023-05-04T06:11:54.751Z,3.90
2023-05-04T06:16:59.881Z,4.35
2023-05-04T06:22:05.431Z,4.05
2023-05-04T06:27:10.225Z,3.30
2023-05-04T06:32:14.982Z,3.58
2023-05-04T06:37:18.643Z,3.65
2023-05-04T06:42:24.417Z,4.93
2023-05-04T06:47:31.308Z,4.70
2023-05-04T06:52:34.140Z,3.88
2023-05-04T06:57:38.197Z,2.92
2023-05-04T07:02:45.268Z,3.85
2023-05-04T07:07:51.520Z,4.18
2023-05-04T07:12:56.019Z,3.90
2023-05-04T07:18:01.334Z,3.78
2023-05-04T07:23:05.368Z,4.57
2023-05-04T07:28:09.492Z,4.40
2023-05-04T07:33:14.508Z,4.47
2023-05-04T07:38:17.266Z,4.10
2023-05-04T07:43:23.034Z,4.28
2023-05-04T07:48:27.576Z,4.55
2023-05-04T07:53:31.761Z,4.85
2023-05-04T07:58:35.935Z,3.35
2023-05-04T08:03:38.660Z,4.20
2023-05-04T08:08:42.435Z,4.18
2023-05-04T08:13:47.748Z,3.80
2023-05-04T08:18:52.239Z,4.38
2023-05-04T08:23:57.158Z,4.82
2023-05-04T08:29:08.361Z,4.57
2023-05-04T08:34:12.086Z,4.13
2023-05-04T08:39:14.856Z,4.32
2023-05-04T08:44:24.051Z,4.15
2023-05-04T08:49:28.367Z,4.32
2023-05-04T08:54:31.227Z,5.25
2023-05-04T08:59:39.161Z,4.30
2023-05-04T09:04:43.435Z,5.30
2023-05-04T09:09:50.938Z,5.25
2023-05-04T09:14:56.984Z,4.18
2023-05-04T09:20:02.048Z,4.47
2023-05-04T09:25:10.538Z,4.40
2023-05-04T09:30:15.476Z,4.43
2023-05-04T09:35:32.055Z,5.00
2023-05-04T09:40:40.903Z,3.38
2023-05-04T09:45:46.392Z,4.10
2023-05-04T09:50:52.700Z,4.20
2023-05-04T09:56:10.671Z,4.35
2023-05-04T10:01:15.128Z,3.67
2023-05-04T10:06:21.928Z,3.95
2023-05-04T10:16:48.005Z,3.80
2023-05-04T10:22:06.220Z,2.88
2023-05-04T10:27:23.445Z,2.85
2023-05-04T10:32:41.251Z,2.33
2023-05-04T10:37:56.031Z,1.92
2023-05-04T10:43:06.310Z,1.80
2023-05-04T10:48:17.266Z,2.47
2023-05-04T10:53:34.131Z,2.05
2023-05-04T10:58:41.732Z,1.83
2023-05-04T11:03:48.325Z,2.35
2023-05-04T11:09:07.139Z,2.13
2023-05-04T11:14:17.207Z,2.63
2023-05-04T11:19:24.472Z,2.40
2023-05-04T11:24:33.869Z,2.67
2023-05-04T11:29:54.365Z,2.47
2023-05-04T11:35:06.004Z,2.97
2023-05-04T11:40:19.013Z,2.92
2023-05-04T11:45:28.533Z,2.55
2023-05-04T11:50:44.131Z,4.38
2023-05-04T11:55:50.821Z,2.78
2023-05-04T12:01:07.705Z,3.92
2023-05-04T12:06:16.074Z,3.78
2023-05-04T12:11:27.103Z,3.15
2023-05-04T12:16:32.117Z,3.20
2023-05-04T12:21:52.920Z,2.83
2023-05-04T12:26:57.830Z,3.05
2023-05-04T12:32:11.608Z,3.35
2023-05-04T12:37:29.902Z,3.45
2023-05-04T12:42:42.487Z,2.67
2023-05-04T12:47:47.818Z,3.00
2023-05-04T12:53:01.163Z,3.17
2023-05-04T12:58:08.915Z,3.38
2023-05-04T13:03:18.186Z,3.72
2023-05-04T13:08:33.056Z,2.35
2023-05-04T13:13:40.468Z,2.92
2023-05-04T13:18:48.034Z,2.95
2023-05-04T13:23:57.496Z,3.00
2023-05-04T13:29:07.028Z,2.83
2023-05-04T13:34:10.285Z,4.00
2023-05-04T13:39:14.476Z,2.80
2023-05-04T13:44:17.222Z,3.20
2023-05-04T13:49:21.688Z,2.85
2023-05-04T13:54:27.687Z,3.05
2023-05-04T13:59:31.038Z,2.72
2023-05-04T14:04:37.511Z,2.55
2023-05-04T14:09:45.489Z,2.67
2023-05-04T14:14:48.329Z,2.30
2023-05-04T14:19:51.069Z,2.05
2023-05-04T14:24:55.270Z,2.50
2023-05-04T14:29:58.170Z,2.63
2023-05-04T14:35:06.435Z,2.00
2023-05-04T14:40:11.671Z,2.60
2023-05-04T14:45:14.780Z,2.15
2023-05-04T14:50:17.571Z,2.50
2023-05-04T14:55:21.883Z,2.10
2023-05-04T15:00:26.016Z,2.30
2023-05-04T15:05:28.698Z,2.28
2023-05-04T15:10:33.815Z,2.40
2023-05-04T15:20:42.735Z,3.20
2023-05-04T15:25:46.792Z,2.92
2023-05-04T15:30:49.724Z,2.00
2023-05-04T15:35:52.526Z,2.60
2023-05-04T15:40:56.591Z,2.45
2023-05-04T15:45:59.379Z,2.65
2023-05-04T15:51:02.395Z,2.10
2023-05-04T15:56:07.832Z,2.38
2023-05-04T16:06:18.812Z,2.35
2023-05-04T16:11:22.877Z,2.95
2023-05-04T16:16:25.940Z,2.67
2023-05-04T16:21:29.103Z,2.47
2023-05-04T16:26:33.127Z,2.60
2023-05-04T16:31:36.671Z,2.33
2023-05-04T16:36:39.511Z,2.70
2023-05-04T16:41:46.605Z,2.40
2023-05-04T16:46:51.057Z,2.25
2023-05-04T16:51:55.339Z,3.00
2023-05-04T16:56:59.673Z,2.57
2023-05-04T17:02:02.989Z,2.25
2023-05-04T17:07:09.430Z,2.72
2023-05-04T17:12:16.186Z,2.45
2023-05-04T17:17:19.221Z,3.17
2023-05-04T17:22:21.940Z,2.20
2023-05-04T17:27:26.459Z,2.90
2023-05-04T17:32:29.676Z,4.93
2023-05-04T17:37:32.931Z,2.97
2023-05-04T17:42:37.255Z,10.80
2023-05-04T17:47:40.100Z,4.10
2023-05-04T17:52:45.382Z,2.40
2023-05-04T17:57:49.931Z,2.65
2023-05-04T18:02:52.756Z,2.70
2023-05-04T18:07:55.372Z,2.95
2023-05-04T18:13:00.457Z,3.13
2023-05-04T18:18:03.316Z,4.60
2023-05-04T18:23:06.582Z,3.00
2023-05-04T18:28:10.948Z,3.75
2023-05-04T18:33:15.036Z,3.47
2023-05-04T18:38:18.680Z,3.85
2023-05-04T18:43:22.747Z,3.40
2023-05-04T18:48:27.847Z,3.05
2023-05-04T18:53:34.176Z,3.33
2023-05-04T18:58:38.995Z,3.40
2023-05-04T19:03:41.806Z,2.97
2023-05-04T19:08:46.613Z,4.22
2023-05-04T19:13:51.022Z,5.20
2023-05-04T19:18:54.088Z,5.20
2023-05-04T19:23:58.044Z,4.13
2023-05-04T19:29:03.089Z,4.32
2023-05-04T19:34:08.062Z,4.53
2023-05-04T19:39:10.902Z,5.07
2023-05-04T19:44:15.095Z,4.45
2023-05-04T19:49:17.889Z,4.57
2023-05-04T19:54:20.685Z,5.30
2023-05-04T19:59:25.033Z,4.90
2023-05-04T20:04:27.805Z,4.78
2023-05-04T20:09:32.205Z,5.43
2023-05-04T20:14:38.212Z,4.25
2023-05-04T20:19:42.952Z,4.88
2023-05-04T20:24:45.816Z,4.85
2023-05-04T20:29:49.933Z,4.55
2023-05-04T20:34:54.619Z,5.25
2023-05-04T20:39:58.022Z,4.30
2023-05-04T20:45:03.444Z,4.70
2023-05-04T20:50:10.227Z,5.00
2023-05-04T20:55:13.356Z,4.18
2023-05-04T21:00:18.913Z,3.70
2023-05-04T21:05:22.273Z,4.40
2023-05-04T21:10:25.062Z,4.13
2023-05-04T21:15:29.116Z,3.92
2023-05-04T21:20:31.880Z,5.25
2023-05-04T21:25:34.591Z,4.45
2023-05-04T21:30:41.593Z,5.32
2023-05-04T21:35:44.829Z,4.10
2023-05-04T21:40:47.741Z,4.03
2023-05-04T21:45:51.789Z,4.53
2023-05-04T21:50:54.536Z,4.38
2023-05-04T21:55:57.246Z,4.45
2023-05-04T22:01:01.631Z,4.50
2023-05-04T22:06:04.838Z,4.18
2023-05-04T22:11:07.902Z,4.68
2023-05-04T22:16:12.076Z,6.35
2023-05-04T22:21:14.863Z,4.80
2023-05-04T22:26:18.096Z,4.28
2023-05-04T22:31:22.293Z,4.63
2023-05-04T22:36:25.149Z,5.20
2023-05-04T22:41:27.958Z,4.55
2023-05-04T22:46:32.113Z,4.72
2023-05-04T22:51:35.075Z,5.38
2023-05-04T22:56:37.871Z,5.15
2023-05-04T23:01:43.310Z,4.32
2023-05-04T23:06:46.906Z,5.10
2023-05-04T23:11:49.668Z,4.57
2023-05-04T23:16:53.942Z,5.10
2023-05-04T23:21:57.391Z,4.40
2023-05-04T23:27:00.094Z,4.75
2023-05-04T23:32:04.359Z,4.78
2023-05-04T23:37:07.324Z,4.28
2023-05-04T23:42:10.187Z,4.95
2023-05-04T23:47:14.628Z,4.38
2023-05-04T23:52:18.323Z,4.70
2023-05-04T23:57:21.265Z,4.53
